sensor_id;sensor_type;location;lat;lon;timestamp;temperature;humidity
7844;DHT22;3967;48.702;9.326;2022-12-08T00:01:08;4.00;97.00
7844;DHT22;3967;48.702;9.326;2022-12-08T00:03:36;3.80;97.00
7844;DHT22;3967;48.702;9.326;2022-12-08T00:06:04;4.00;97.10
7844;DHT22;3967;48.702;9.326;2022-12-08T00:08:50;4.00;97.30
7844;DHT22;3967;48.702;9.326;2022-12-08T00:11:36;3.90;97.20
7844;DHT22;3967;48.702;9.326;2022-12-08T00:14:03;4.00;97.20
7844;DHT22;3967;48.702;9.326;2022-12-08T00:16:29;4.00;97.20
7844;DHT22;3967;48.702;9.326;2022-12-08T00:18:56;4.00;97.20
7844;DHT22;3967;48.702;9.326;2022-12-08T00:21:26;4.00;97.10
7844;DHT22;3967;48.702;9.326;2022-12-08T00:23:54;4.00;97.00
7844;DHT22;3967;48.702;9.326;2022-12-08T00:26:21;4.00;96.80
7844;DHT22;3967;48.702;9.326;2022-12-08T00:28:48;4.00;96.80
7844;DHT22;3967;48.702;9.326;2022-12-08T00:31:15;4.00;96.60
7844;DHT22;3967;48.702;9.326;2022-12-08T00:33:42;4.00;96.70
7844;DHT22;3967;48.702;9.326;2022-12-08T00:36:11;4.00;97.00
7844;DHT22;3967;48.702;9.326;2022-12-08T00:38:38;3.90;96.90
7844;DHT22;3967;48.702;9.326;2022-12-08T00:41:14;3.90;96.90
7844;DHT22;3967;48.702;9.326;2022-12-08T00:43:41;3.90;97.00
7844;DHT22;3967;48.702;9.326;2022-12-08T00:46:08;3.80;97.10
7844;DHT22;3967;48.702;9.326;2022-12-08T00:48:35;3.50;97.10
7844;DHT22;3967;48.702;9.326;2022-12-08T00:51:02;3.40;97.70
7844;DHT22;3967;48.702;9.326;2022-12-08T00:53:29;3.60;97.80
7844;DHT22;3967;48.702;9.326;2022-12-08T00:55:56;3.60;97.60
7844;DHT22;3967;48.702;9.326;2022-12-08T00:58:23;3.60;97.50
7844;DHT22;3967;48.702;9.326;2022-12-08T01:00:50;3.60;97.30
7844;DHT22;3967;48.702;9.326;2022-12-08T01:03:17;3.60;97.20
7844;DHT22;3967;48.702;9.326;2022-12-08T01:05:43;3.50;97.00
7844;DHT22;3967;48.702;9.326;2022-12-08T01:08:10;3.40;96.80
7844;DHT22;3967;48.702;9.326;2022-12-08T01:10:37;3.40;96.70
7844;DHT22;3967;48.702;9.326;2022-12-08T01:13:04;3.40;96.80
7844;DHT22;3967;48.702;9.326;2022-12-08T01:15:31;3.40;96.80
7844;DHT22;3967;48.702;9.326;2022-12-08T01:17:58;3.40;96.80
7844;DHT22;3967;48.702;9.326;2022-12-08T01:20:25;3.30;96.80
7844;DHT22;3967;48.702;9.326;2022-12-08T01:22:51;3.30;96.70
7844;DHT22;3967;48.702;9.326;2022-12-08T01:25:18;3.20;96.70
7844;DHT22;3967;48.702;9.326;2022-12-08T01:27:48;3.10;96.70
7844;DHT22;3967;48.702;9.326;2022-12-08T01:30:14;3.00;97.00
7844;DHT22;3967;48.702;9.326;2022-12-08T01:32:41;3.00;97.30
7844;DHT22;3967;48.702;9.326;2022-12-08T01:35:08;2.90;97.30
7844;DHT22;3967;48.702;9.326;2022-12-08T01:37:35;2.90;97.40
7844;DHT22;3967;48.702;9.326;2022-12-08T01:40:02;3.00;97.20
7844;DHT22;3967;48.702;9.326;2022-12-08T01:42:30;3.00;96.90
7844;DHT22;3967;48.702;9.326;2022-12-08T01:45:01;3.00;96.80
7844;DHT22;3967;48.702;9.326;2022-12-08T01:47:39;3.00;96.80
7844;DHT22;3967;48.702;9.326;2022-12-08T01:50:09;3.00;96.70
7844;DHT22;3967;48.702;9.326;2022-12-08T01:52:38;2.90;96.70
7844;DHT22;3967;48.702;9.326;2022-12-08T01:57:50;2.90;96.60
7844;DHT22;3967;48.702;9.326;2022-12-08T02:00:19;2.90;96.60
7844;DHT22;3967;48.702;9.326;2022-12-08T02:02:57;2.80;96.40
7844;DHT22;3967;48.702;9.326;2022-12-08T02:05:32;2.80;96.40
7844;DHT22;3967;48.702;9.326;2022-12-08T02:08:02;2.70;96.50
7844;DHT22;3967;48.702;9.326;2022-12-08T02:10:33;2.70;96.80
7844;DHT22;3967;48.702;9.326;2022-12-08T02:13:05;2.60;96.80
7844;DHT22;3967;48.702;9.326;2022-12-08T02:20:52;2.60;96.60
7844;DHT22;3967;48.702;9.326;2022-12-08T02:23:36;2.60;96.90
7844;DHT22;3967;48.702;9.326;2022-12-08T02:34:42;2.60;96.80
7844;DHT22;3967;48.702;9.326;2022-12-08T02:37:25;2.60;96.80
7844;DHT22;3967;48.702;9.326;2022-12-08T02:40:12;2.50;96.90
7844;DHT22;3967;48.702;9.326;2022-12-08T02:42:46;2.50;97.00
7844;DHT22;3967;48.702;9.326;2022-12-08T02:45:25;2.40;97.00
7844;DHT22;3967;48.702;9.326;2022-12-08T02:47:54;2.40;97.00
7844;DHT22;3967;48.702;9.326;2022-12-08T02:50:21;2.40;96.90
7844;DHT22;3967;48.702;9.326;2022-12-08T02:52:47;2.40;97.00
7844;DHT22;3967;48.702;9.326;2022-12-08T03:03:34;2.40;97.20
7844;DHT22;3967;48.702;9.326;2022-12-08T03:12:09;2.10;97.10
7844;DHT22;3967;48.702;9.326;2022-12-08T03:14:44;2.00;97.60
7844;DHT22;3967;48.702;9.326;2022-12-08T03:17:13;2.00;97.80
7844;DHT22;3967;48.702;9.326;2022-12-08T03:19:43;2.00;97.70
7844;DHT22;3967;48.702;9.326;2022-12-08T03:22:12;2.10;97.80
7844;DHT22;3967;48.702;9.326;2022-12-08T03:24:43;2.00;97.60
7844;DHT22;3967;48.702;9.326;2022-12-08T03:27:19;2.00;97.70
7844;DHT22;3967;48.702;9.326;2022-12-08T03:29:51;2.00;97.40
7844;DHT22;3967;48.702;9.326;2022-12-08T03:34:52;2.00;97.60
7844;DHT22;3967;48.702;9.326;2022-12-08T03:37:19;1.80;97.80
7844;DHT22;3967;48.702;9.326;2022-12-08T03:39:47;1.90;98.20
7844;DHT22;3967;48.702;9.326;2022-12-08T03:42:13;2.00;98.40
7844;DHT22;3967;48.702;9.326;2022-12-08T03:44:40;1.90;97.90
7844;DHT22;3967;48.702;9.326;2022-12-08T03:47:06;1.90;97.80
7844;DHT22;3967;48.702;9.326;2022-12-08T03:49:39;1.90;97.70
7844;DHT22;3967;48.702;9.326;2022-12-08T03:52:06;1.90;97.50
7844;DHT22;3967;48.702;9.326;2022-12-08T03:54:32;1.80;97.20
7844;DHT22;3967;48.702;9.326;2022-12-08T03:56:59;1.80;97.30
7844;DHT22;3967;48.702;9.326;2022-12-08T03:59:26;1.70;97.10
7844;DHT22;3967;48.702;9.326;2022-12-08T04:01:53;1.70;97.50
7844;DHT22;3967;48.702;9.326;2022-12-08T04:04:19;1.80;97.50
7844;DHT22;3967;48.702;9.326;2022-12-08T04:06:46;1.70;97.50
7844;DHT22;3967;48.702;9.326;2022-12-08T04:09:13;1.70;97.50
7844;DHT22;3967;48.702;9.326;2022-12-08T04:11:39;1.70;97.50
7844;DHT22;3967;48.702;9.326;2022-12-08T04:14:06;1.70;97.40
7844;DHT22;3967;48.702;9.326;2022-12-08T04:16:33;1.70;97.40
7844;DHT22;3967;48.702;9.326;2022-12-08T04:19:00;1.70;97.30
7844;DHT22;3967;48.702;9.326;2022-12-08T04:21:27;1.70;97.30
7844;DHT22;3967;48.702;9.326;2022-12-08T04:23:54;1.70;97.10
7844;DHT22;3967;48.702;9.326;2022-12-08T04:26:27;1.60;97.00
7844;DHT22;3967;48.702;9.326;2022-12-08T04:28:53;1.70;96.90
7844;DHT22;3967;48.702;9.326;2022-12-08T04:31:20;1.60;97.10
7844;DHT22;3967;48.702;9.326;2022-12-08T04:33:47;1.50;97.40
7844;DHT22;3967;48.702;9.326;2022-12-08T04:36:14;1.50;97.80
7844;DHT22;3967;48.702;9.326;2022-12-08T04:38:43;1.50;97.40
7844;DHT22;3967;48.702;9.326;2022-12-08T04:41:10;1.50;97.40
7844;DHT22;3967;48.702;9.326;2022-12-08T04:43:37;1.50;97.20
7844;DHT22;3967;48.702;9.326;2022-12-08T04:46:07;1.50;97.20
7844;DHT22;3967;48.702;9.326;2022-12-08T04:48:37;1.50;97.30
7844;DHT22;3967;48.702;9.326;2022-12-08T04:51:04;1.50;97.30
7844;DHT22;3967;48.702;9.326;2022-12-08T04:53:31;1.40;97.50
7844;DHT22;3967;48.702;9.326;2022-12-08T04:56:00;1.40;97.70
7844;DHT22;3967;48.702;9.326;2022-12-08T04:58:26;1.20;98.20
7844;DHT22;3967;48.702;9.326;2022-12-08T05:00:53;1.20;98.60
7844;DHT22;3967;48.702;9.326;2022-12-08T05:03:20;1.30;98.70
7844;DHT22;3967;48.702;9.326;2022-12-08T05:05:54;1.30;98.40
7844;DHT22;3967;48.702;9.326;2022-12-08T05:08:20;1.20;98.50
7844;DHT22;3967;48.702;9.326;2022-12-08T05:10:47;1.20;98.50
7844;DHT22;3967;48.702;9.326;2022-12-08T05:13:14;1.30;98.50
7844;DHT22;3967;48.702;9.326;2022-12-08T05:15:40;1.30;98.30
7844;DHT22;3967;48.702;9.326;2022-12-08T05:18:07;1.30;98.00
7844;DHT22;3967;48.702;9.326;2022-12-08T05:20:34;1.20;97.80
7844;DHT22;3967;48.702;9.326;2022-12-08T05:23:01;1.30;97.60
7844;DHT22;3967;48.702;9.326;2022-12-08T05:25:28;1.30;97.40
7844;DHT22;3967;48.702;9.326;2022-12-08T05:27:54;1.20;97.60
7844;DHT22;3967;48.702;9.326;2022-12-08T05:30:41;1.30;97.30
7844;DHT22;3967;48.702;9.326;2022-12-08T05:33:08;1.20;97.30
7844;DHT22;3967;48.702;9.326;2022-12-08T05:35:34;1.20;97.60
7844;DHT22;3967;48.702;9.326;2022-12-08T05:38:01;1.20;97.60
7844;DHT22;3967;48.702;9.326;2022-12-08T05:40:28;1.20;97.60
7844;DHT22;3967;48.702;9.326;2022-12-08T05:42:54;1.20;97.60
7844;DHT22;3967;48.702;9.326;2022-12-08T05:45:21;1.20;97.50
7844;DHT22;3967;48.702;9.326;2022-12-08T05:47:48;1.20;97.40
7844;DHT22;3967;48.702;9.326;2022-12-08T05:50:14;1.10;97.40
7844;DHT22;3967;48.702;9.326;2022-12-08T05:52:41;1.00;97.70
7844;DHT22;3967;48.702;9.326;2022-12-08T05:55:08;1.00;98.30
7844;DHT22;3967;48.702;9.326;2022-12-08T05:57:35;0.90;98.40
7844;DHT22;3967;48.702;9.326;2022-12-08T06:00:02;0.70;98.80
7844;DHT22;3967;48.702;9.326;2022-12-08T06:02:29;0.60;99.60
7844;DHT22;3967;48.702;9.326;2022-12-08T06:04:56;0.70;99.90
7844;DHT22;3967;48.702;9.326;2022-12-08T06:07:23;0.80;99.90
7844;DHT22;3967;48.702;9.326;2022-12-08T06:09:50;0.80;99.80
7844;DHT22;3967;48.702;9.326;2022-12-08T06:12:16;0.80;99.60
7844;DHT22;3967;48.702;9.326;2022-12-08T06:14:43;0.80;99.40
7844;DHT22;3967;48.702;9.326;2022-12-08T06:17:10;1.50;99.90
7844;DHT22;3967;48.702;9.326;2022-12-08T06:19:37;1.10;99.90
7844;DHT22;3967;48.702;9.326;2022-12-08T06:22:03;0.90;99.90
7844;DHT22;3967;48.702;9.326;2022-12-08T06:24:30;0.90;99.90
7844;DHT22;3967;48.702;9.326;2022-12-08T06:26:56;0.90;99.90
7844;DHT22;3967;48.702;9.326;2022-12-08T06:29:23;0.80;99.90
7844;DHT22;3967;48.702;9.326;2022-12-08T06:31:50;0.90;99.90
7844;DHT22;3967;48.702;9.326;2022-12-08T06:34:18;0.90;99.90
7844;DHT22;3967;48.702;9.326;2022-12-08T06:36:44;0.80;99.90
7844;DHT22;3967;48.702;9.326;2022-12-08T06:39:11;0.80;99.90
7844;DHT22;3967;48.702;9.326;2022-12-08T06:41:38;0.80;99.60
7844;DHT22;3967;48.702;9.326;2022-12-08T06:44:24;0.80;99.40
7844;DHT22;3967;48.702;9.326;2022-12-08T06:46:51;0.90;99.10
7844;DHT22;3967;48.702;9.326;2022-12-08T06:49:18;0.90;99.00
7844;DHT22;3967;48.702;9.326;2022-12-08T06:51:44;0.80;99.00
7844;DHT22;3967;48.702;9.326;2022-12-08T06:54:11;0.80;98.90
7844;DHT22;3967;48.702;9.326;2022-12-08T06:56:38;0.70;98.80
7844;DHT22;3967;48.702;9.326;2022-12-08T06:59:05;0.70;98.80
7844;DHT22;3967;48.702;9.326;2022-12-08T07:01:31;0.70;99.00
7844;DHT22;3967;48.702;9.326;2022-12-08T07:03:58;0.70;99.20
7844;DHT22;3967;48.702;9.326;2022-12-08T07:06:25;0.60;99.10
7844;DHT22;3967;48.702;9.326;2022-12-08T07:08:51;0.60;98.90
7844;DHT22;3967;48.702;9.326;2022-12-08T07:11:18;0.60;99.00
7844;DHT22;3967;48.702;9.326;2022-12-08T07:13:48;0.50;99.20
7844;DHT22;3967;48.702;9.326;2022-12-08T07:16:15;0.40;99.60
7844;DHT22;3967;48.702;9.326;2022-12-08T07:18:42;0.40;99.80
7844;DHT22;3967;48.702;9.326;2022-12-08T07:21:11;0.50;99.90
7844;DHT22;3967;48.702;9.326;2022-12-08T07:23:38;0.40;99.90
7844;DHT22;3967;48.702;9.326;2022-12-08T07:26:08;0.30;99.90
7844;DHT22;3967;48.702;9.326;2022-12-08T07:28:38;0.10;99.90
7844;DHT22;3967;48.702;9.326;2022-12-08T07:31:06;0.10;99.90
7844;DHT22;3967;48.702;9.326;2022-12-08T07:33:34;0.10;99.90
7844;DHT22;3967;48.702;9.326;2022-12-08T07:36:04;0.10;99.90
7844;DHT22;3967;48.702;9.326;2022-12-08T07:38:31;0.10;99.90
7844;DHT22;3967;48.702;9.326;2022-12-08T07:40:58;0.20;99.90
7844;DHT22;3967;48.702;9.326;2022-12-08T07:43:24;0.20;99.90
7844;DHT22;3967;48.702;9.326;2022-12-08T07:45:51;0.20;99.90
7844;DHT22;3967;48.702;9.326;2022-12-08T07:48:18;0.20;99.90
7844;DHT22;3967;48.702;9.326;2022-12-08T07:50:45;0.20;99.90
7844;DHT22;3967;48.702;9.326;2022-12-08T07:53:13;0.30;99.90
7844;DHT22;3967;48.702;9.326;2022-12-08T07:55:43;0.30;99.90
7844;DHT22;3967;48.702;9.326;2022-12-08T07:58:10;0.30;99.90
7844;DHT22;3967;48.702;9.326;2022-12-08T08:00:37;0.30;99.90
7844;DHT22;3967;48.702;9.326;2022-12-08T08:03:04;0.20;99.90
7844;DHT22;3967;48.702;9.326;2022-12-08T08:05:31;0.30;99.90
7844;DHT22;3967;48.702;9.326;2022-12-08T08:07:58;0.50;99.90
7844;DHT22;3967;48.702;9.326;2022-12-08T08:10:25;0.50;99.90
7844;DHT22;3967;48.702;9.326;2022-12-08T08:12:52;0.40;99.90
7844;DHT22;3967;48.702;9.326;2022-12-08T08:15:19;0.40;99.90
7844;DHT22;3967;48.702;9.326;2022-12-08T08:17:50;0.40;99.90
7844;DHT22;3967;48.702;9.326;2022-12-08T08:20:18;0.50;99.90
7844;DHT22;3967;48.702;9.326;2022-12-08T08:22:49;0.70;99.90
7844;DHT22;3967;48.702;9.326;2022-12-08T08:25:17;0.80;99.90
7844;DHT22;3967;48.702;9.326;2022-12-08T08:27:44;0.80;99.90
7844;DHT22;3967;48.702;9.326;2022-12-08T08:30:13;0.90;99.90
7844;DHT22;3967;48.702;9.326;2022-12-08T08:32:47;0.80;99.90
7844;DHT22;3967;48.702;9.326;2022-12-08T08:35:14;0.80;99.90
7844;DHT22;3967;48.702;9.326;2022-12-08T08:37:41;0.90;99.90
7844;DHT22;3967;48.702;9.326;2022-12-08T08:40:14;0.90;99.90
7844;DHT22;3967;48.702;9.326;2022-12-08T08:42:41;1.00;99.90
7844;DHT22;3967;48.702;9.326;2022-12-08T08:45:08;1.00;99.90
7844;DHT22;3967;48.702;9.326;2022-12-08T08:47:35;1.00;99.90
7844;DHT22;3967;48.702;9.326;2022-12-08T08:50:02;1.10;99.90
7844;DHT22;3967;48.702;9.326;2022-12-08T08:52:30;1.30;99.90
7844;DHT22;3967;48.702;9.326;2022-12-08T08:54:57;1.40;99.90
7844;DHT22;3967;48.702;9.326;2022-12-08T08:57:24;1.50;99.90
7844;DHT22;3967;48.702;9.326;2022-12-08T08:59:52;1.60;99.90
7844;DHT22;3967;48.702;9.326;2022-12-08T09:02:19;1.70;99.90
7844;DHT22;3967;48.702;9.326;2022-12-08T09:04:46;1.80;99.90
7844;DHT22;3967;48.702;9.326;2022-12-08T09:07:14;1.70;99.90
7844;DHT22;3967;48.702;9.326;2022-12-08T09:09:41;1.80;99.90
7844;DHT22;3967;48.702;9.326;2022-12-08T09:12:08;2.00;99.90
7844;DHT22;3967;48.702;9.326;2022-12-08T09:14:35;2.00;99.90
7844;DHT22;3967;48.702;9.326;2022-12-08T09:17:02;1.90;99.90
7844;DHT22;3967;48.702;9.326;2022-12-08T09:19:29;1.90;99.90
7844;DHT22;3967;48.702;9.326;2022-12-08T09:21:56;2.00;99.90
7844;DHT22;3967;48.702;9.326;2022-12-08T09:24:25;2.10;99.90
7844;DHT22;3967;48.702;9.326;2022-12-08T09:26:52;2.30;99.90
7844;DHT22;3967;48.702;9.326;2022-12-08T09:29:19;2.40;99.90
7844;DHT22;3967;48.702;9.326;2022-12-08T09:31:46;2.30;99.90
7844;DHT22;3967;48.702;9.326;2022-12-08T09:34:13;2.30;99.90
7844;DHT22;3967;48.702;9.326;2022-12-08T09:36:39;2.40;99.90
7844;DHT22;3967;48.702;9.326;2022-12-08T09:39:06;2.50;99.70
7844;DHT22;3967;48.702;9.326;2022-12-08T09:47:00;2.60;99.00
7844;DHT22;3967;48.702;9.326;2022-12-08T09:49:40;2.40;99.10
7844;DHT22;3967;48.702;9.326;2022-12-08T09:52:19;2.50;99.20
7844;DHT22;3967;48.702;9.326;2022-12-08T09:54:46;2.60;99.50
7844;DHT22;3967;48.702;9.326;2022-12-08T09:57:17;2.60;99.30
7844;DHT22;3967;48.702;9.326;2022-12-08T09:59:50;2.80;99.60
7844;DHT22;3967;48.702;9.326;2022-12-08T10:02:23;2.70;98.60
7844;DHT22;3967;48.702;9.326;2022-12-08T10:04:53;2.70;97.90
7844;DHT22;3967;48.702;9.326;2022-12-08T10:07:37;2.80;97.90
7844;DHT22;3967;48.702;9.326;2022-12-08T10:13:16;3.20;97.80
7844;DHT22;3967;48.702;9.326;2022-12-08T10:18:29;3.20;97.00
7844;DHT22;3967;48.702;9.326;2022-12-08T10:21:10;3.30;96.90
7844;DHT22;3967;48.702;9.326;2022-12-08T10:23:40;3.30;96.60
7844;DHT22;3967;48.702;9.326;2022-12-08T10:26:15;3.30;96.50
7844;DHT22;3967;48.702;9.326;2022-12-08T10:28:42;3.40;96.10
7844;DHT22;3967;48.702;9.326;2022-12-08T10:31:19;3.50;96.00
7844;DHT22;3967;48.702;9.326;2022-12-08T10:33:48;3.70;97.50
7844;DHT22;3967;48.702;9.326;2022-12-08T10:36:18;3.70;95.90
7844;DHT22;3967;48.702;9.326;2022-12-08T10:38:44;3.70;95.40
7844;DHT22;3967;48.702;9.326;2022-12-08T10:41:12;3.60;95.20
7844;DHT22;3967;48.702;9.326;2022-12-08T10:43:47;3.40;95.00
7844;DHT22;3967;48.702;9.326;2022-12-08T10:46:20;3.30;94.90
7844;DHT22;3967;48.702;9.326;2022-12-08T10:48:49;3.40;95.10
7844;DHT22;3967;48.702;9.326;2022-12-08T10:53:48;3.60;94.90
7844;DHT22;3967;48.702;9.326;2022-12-08T10:56:16;3.70;94.60
7844;DHT22;3967;48.702;9.326;2022-12-08T10:58:44;3.60;94.50
7844;DHT22;3967;48.702;9.326;2022-12-08T11:01:19;3.50;94.80
7844;DHT22;3967;48.702;9.326;2022-12-08T11:03:49;3.60;95.10
7844;DHT22;3967;48.702;9.326;2022-12-08T11:06:32;3.70;94.80
7844;DHT22;3967;48.702;9.326;2022-12-08T11:11:46;3.80;94.10
7844;DHT22;3967;48.702;9.326;2022-12-08T11:19:29;3.90;93.60
7844;DHT22;3967;48.702;9.326;2022-12-08T11:21:55;3.80;93.70
7844;DHT22;3967;48.702;9.326;2022-12-08T11:24:23;3.90;94.00
7844;DHT22;3967;48.702;9.326;2022-12-08T11:26:59;4.00;93.60
7844;DHT22;3967;48.702;9.326;2022-12-08T11:29:27;4.00;93.50
7844;DHT22;3967;48.702;9.326;2022-12-08T11:31:59;4.00;93.40
7844;DHT22;3967;48.702;9.326;2022-12-08T11:34:40;4.40;96.10
7844;DHT22;3967;48.702;9.326;2022-12-08T11:37:25;4.30;93.30
7844;DHT22;3967;48.702;9.326;2022-12-08T11:40:04;4.20;92.80
7844;DHT22;3967;48.702;9.326;2022-12-08T11:42:37;4.10;92.80
7844;DHT22;3967;48.702;9.326;2022-12-08T11:45:19;4.10;92.70
7844;DHT22;3967;48.702;9.326;2022-12-08T11:48:13;3.90;92.40
7844;DHT22;3967;48.702;9.326;2022-12-08T11:50:46;3.70;92.10
7844;DHT22;3967;48.702;9.326;2022-12-08T11:55:52;3.70;92.20
7844;DHT22;3967;48.702;9.326;2022-12-08T11:58:23;3.80;92.40
7844;DHT22;3967;48.702;9.326;2022-12-08T12:00:51;3.80;92.10
7844;DHT22;3967;48.702;9.326;2022-12-08T12:03:52;3.90;91.90
7844;DHT22;3967;48.702;9.326;2022-12-08T12:12:11;3.90;92.10
7844;DHT22;3967;48.702;9.326;2022-12-08T12:20:32;4.10;92.20
7844;DHT22;3967;48.702;9.326;2022-12-08T12:23:12;4.10;91.80
7844;DHT22;3967;48.702;9.326;2022-12-08T12:25:59;4.10;91.50
7844;DHT22;3967;48.702;9.326;2022-12-08T12:28:29;4.10;91.50
7844;DHT22;3967;48.702;9.326;2022-12-08T12:31:05;4.20;91.60
7844;DHT22;3967;48.702;9.326;2022-12-08T12:33:34;4.30;91.20
7844;DHT22;3967;48.702;9.326;2022-12-08T12:36:06;4.20;91.40
7844;DHT22;3967;48.702;9.326;2022-12-08T12:38:35;4.20;91.50
7844;DHT22;3967;48.702;9.326;2022-12-08T12:41:27;4.30;90.70
7844;DHT22;3967;48.702;9.326;2022-12-08T13:00:04;4.10;90.10
7844;DHT22;3967;48.702;9.326;2022-12-08T13:05:29;4.10;90.10
7844;DHT22;3967;48.702;9.326;2022-12-08T13:08:20;4.30;90.20
7844;DHT22;3967;48.702;9.326;2022-12-08T13:11:08;4.30;89.80
7844;DHT22;3967;48.702;9.326;2022-12-08T13:13:37;4.40;89.50
7844;DHT22;3967;48.702;9.326;2022-12-08T13:16:15;4.20;88.50
7844;DHT22;3967;48.702;9.326;2022-12-08T13:18:50;4.30;89.20
7844;DHT22;3967;48.702;9.326;2022-12-08T13:21:19;4.40;89.40
7844;DHT22;3967;48.702;9.326;2022-12-08T13:31:36;4.40;88.10
7844;DHT22;3967;48.702;9.326;2022-12-08T13:37:19;4.30;86.70
7844;DHT22;3967;48.702;9.326;2022-12-08T13:39:52;4.50;86.80
7844;DHT22;3967;48.702;9.326;2022-12-08T13:42:28;4.40;86.50
7844;DHT22;3967;48.702;9.326;2022-12-08T13:45:02;4.40;86.50
7844;DHT22;3967;48.702;9.326;2022-12-08T13:48:05;4.50;86.90
7844;DHT22;3967;48.702;9.326;2022-12-08T13:51:15;4.50;86.70
7844;DHT22;3967;48.702;9.326;2022-12-08T13:54:29;4.50;86.00
7844;DHT22;3967;48.702;9.326;2022-12-08T13:57:27;4.30;84.60
7844;DHT22;3967;48.702;9.326;2022-12-08T14:00:00;4.40;85.80
7844;DHT22;3967;48.702;9.326;2022-12-08T14:02:39;4.40;85.00
7844;DHT22;3967;48.702;9.326;2022-12-08T14:05:15;4.40;85.60
7844;DHT22;3967;48.702;9.326;2022-12-08T14:07:47;4.50;85.60
7844;DHT22;3967;48.702;9.326;2022-12-08T14:10:51;4.60;85.60
7844;DHT22;3967;48.702;9.326;2022-12-08T14:13:11;4.50;86.00
7844;DHT22;3967;48.702;9.326;2022-12-08T14:15:38;4.60;85.40
7844;DHT22;3967;48.702;9.326;2022-12-08T14:18:24;4.50;85.30
7844;DHT22;3967;48.702;9.326;2022-12-08T14:21:03;4.70;89.10
7844;DHT22;3967;48.702;9.326;2022-12-08T14:23:47;4.70;85.10
7844;DHT22;3967;48.702;9.326;2022-12-08T14:26:14;4.30;83.70
7844;DHT22;3967;48.702;9.326;2022-12-08T14:28:41;4.20;83.90
7844;DHT22;3967;48.702;9.326;2022-12-08T14:31:10;4.30;84.40
7844;DHT22;3967;48.702;9.326;2022-12-08T14:33:40;4.40;84.50
7844;DHT22;3967;48.702;9.326;2022-12-08T14:36:08;4.40;83.80
7844;DHT22;3967;48.702;9.326;2022-12-08T14:38:35;4.40;84.00
7844;DHT22;3967;48.702;9.326;2022-12-08T14:41:07;4.50;83.70
7844;DHT22;3967;48.702;9.326;2022-12-08T14:43:34;4.40;83.30
7844;DHT22;3967;48.702;9.326;2022-12-08T14:46:11;4.30;83.60
7844;DHT22;3967;48.702;9.326;2022-12-08T14:48:44;4.30;84.20
7844;DHT22;3967;48.702;9.326;2022-12-08T14:53:43;4.50;84.10
7844;DHT22;3967;48.702;9.326;2022-12-08T14:56:21;4.50;83.90
7844;DHT22;3967;48.702;9.326;2022-12-08T14:59:00;4.40;83.60
7844;DHT22;3967;48.702;9.326;2022-12-08T15:01:28;4.30;84.00
7844;DHT22;3967;48.702;9.326;2022-12-08T15:07:15;4.30;84.50
7844;DHT22;3967;48.702;9.326;2022-12-08T15:09:46;4.40;85.30
7844;DHT22;3967;48.702;9.326;2022-12-08T15:14:52;4.40;85.90
7844;DHT22;3967;48.702;9.326;2022-12-08T15:23:01;4.30;86.20
7844;DHT22;3967;48.702;9.326;2022-12-08T15:25:28;4.30;86.40
7844;DHT22;3967;48.702;9.326;2022-12-08T15:27:55;4.30;86.60
7844;DHT22;3967;48.702;9.326;2022-12-08T15:30:24;4.40;86.90
7844;DHT22;3967;48.702;9.326;2022-12-08T15:32:52;4.30;86.90
7844;DHT22;3967;48.702;9.326;2022-12-08T15:35:21;4.30;86.80
7844;DHT22;3967;48.702;9.326;2022-12-08T15:37:48;4.30;86.50
7844;DHT22;3967;48.702;9.326;2022-12-08T15:40:17;4.30;86.50
7844;DHT22;3967;48.702;9.326;2022-12-08T15:42:45;4.30;86.70
7844;DHT22;3967;48.702;9.326;2022-12-08T15:45:15;4.10;86.70
7844;DHT22;3967;48.702;9.326;2022-12-08T15:47:43;4.20;87.00
7844;DHT22;3967;48.702;9.326;2022-12-08T15:50:15;4.30;87.00
7844;DHT22;3967;48.702;9.326;2022-12-08T15:52:42;4.30;87.20
7844;DHT22;3967;48.702;9.326;2022-12-08T15:55:17;4.30;87.50
7844;DHT22;3967;48.702;9.326;2022-12-08T15:57:52;4.30;87.20
7844;DHT22;3967;48.702;9.326;2022-12-08T16:00:39;4.10;87.40
7844;DHT22;3967;48.702;9.326;2022-12-08T16:03:29;4.20;87.40
7844;DHT22;3967;48.702;9.326;2022-12-08T16:06:18;4.20;87.50
7844;DHT22;3967;48.702;9.326;2022-12-08T16:09:08;4.10;87.40
7844;DHT22;3967;48.702;9.326;2022-12-08T16:11:39;4.10;87.80
7844;DHT22;3967;48.702;9.326;2022-12-08T16:14:35;4.10;88.20
7844;DHT22;3967;48.702;9.326;2022-12-08T16:17:22;4.20;88.10
7844;DHT22;3967;48.702;9.326;2022-12-08T16:19:49;4.20;88.00
7844;DHT22;3967;48.702;9.326;2022-12-08T16:22:18;4.20;88.20
7844;DHT22;3967;48.702;9.326;2022-12-08T16:25:05;4.10;88.00
7844;DHT22;3967;48.702;9.326;2022-12-08T16:27:51;4.20;88.30
7844;DHT22;3967;48.702;9.326;2022-12-08T16:30:38;4.20;88.30
7844;DHT22;3967;48.702;9.326;2022-12-08T16:33:05;4.10;88.40
7844;DHT22;3967;48.702;9.326;2022-12-08T16:35:32;4.10;88.50
7844;DHT22;3967;48.702;9.326;2022-12-08T16:37:58;4.10;88.50
7844;DHT22;3967;48.702;9.326;2022-12-08T16:40:25;4.20;88.60
7844;DHT22;3967;48.702;9.326;2022-12-08T16:42:52;4.10;88.00
7844;DHT22;3967;48.702;9.326;2022-12-08T16:45:22;4.10;88.20
7844;DHT22;3967;48.702;9.326;2022-12-08T16:47:52;4.10;88.60
7844;DHT22;3967;48.702;9.326;2022-12-08T16:50:23;4.10;88.50
7844;DHT22;3967;48.702;9.326;2022-12-08T16:52:56;4.00;88.00
7844;DHT22;3967;48.702;9.326;2022-12-08T16:55:23;4.10;88.00
7844;DHT22;3967;48.702;9.326;2022-12-08T16:57:50;4.00;87.80
7844;DHT22;3967;48.702;9.326;2022-12-08T17:00:19;4.20;90.10
7844;DHT22;3967;48.702;9.326;2022-12-08T17:02:47;4.10;88.60
7844;DHT22;3967;48.702;9.326;2022-12-08T17:05:15;4.00;88.40
7844;DHT22;3967;48.702;9.326;2022-12-08T17:07:44;3.90;88.30
7844;DHT22;3967;48.702;9.326;2022-12-08T17:10:14;3.90;88.70
7844;DHT22;3967;48.702;9.326;2022-12-08T17:12:42;3.90;88.70
7844;DHT22;3967;48.702;9.326;2022-12-08T17:15:12;3.90;88.90
7844;DHT22;3967;48.702;9.326;2022-12-08T17:17:39;3.90;89.20
7844;DHT22;3967;48.702;9.326;2022-12-08T17:20:10;3.90;89.90
7844;DHT22;3967;48.702;9.326;2022-12-08T17:22:37;3.90;90.00
7844;DHT22;3967;48.702;9.326;2022-12-08T17:25:04;3.90;90.10
7844;DHT22;3967;48.702;9.326;2022-12-08T17:27:31;3.90;90.50
7844;DHT22;3967;48.702;9.326;2022-12-08T17:29:58;3.80;90.40
7844;DHT22;3967;48.702;9.326;2022-12-08T17:32:25;3.70;90.40
7844;DHT22;3967;48.702;9.326;2022-12-08T17:34:52;3.80;90.50
7844;DHT22;3967;48.702;9.326;2022-12-08T17:37:19;3.80;90.30
7844;DHT22;3967;48.702;9.326;2022-12-08T17:39:46;3.80;90.30
7844;DHT22;3967;48.702;9.326;2022-12-08T17:42:12;3.80;90.50
7844;DHT22;3967;48.702;9.326;2022-12-08T17:44:39;3.70;90.10
7844;DHT22;3967;48.702;9.326;2022-12-08T17:47:06;3.60;90.30
7844;DHT22;3967;48.702;9.326;2022-12-08T17:49:33;3.50;90.80
7844;DHT22;3967;48.702;9.326;2022-12-08T17:52:03;3.50;91.40
7844;DHT22;3967;48.702;9.326;2022-12-08T17:54:30;3.60;91.30
7844;DHT22;3967;48.702;9.326;2022-12-08T17:56:58;3.80;91.10
7844;DHT22;3967;48.702;9.326;2022-12-08T17:59:26;3.80;91.00
7844;DHT22;3967;48.702;9.326;2022-12-08T18:01:55;3.80;90.80
7844;DHT22;3967;48.702;9.326;2022-12-08T18:04:23;3.80;90.50
7844;DHT22;3967;48.702;9.326;2022-12-08T18:06:50;3.80;90.00
7844;DHT22;3967;48.702;9.326;2022-12-08T18:09:17;3.80;89.40
7844;DHT22;3967;48.702;9.326;2022-12-08T18:11:45;3.80;89.30
7844;DHT22;3967;48.702;9.326;2022-12-08T18:14:12;3.80;89.50
7844;DHT22;3967;48.702;9.326;2022-12-08T18:16:42;3.80;89.30
7844;DHT22;3967;48.702;9.326;2022-12-08T18:19:10;3.80;89.20
7844;DHT22;3967;48.702;9.326;2022-12-08T18:21:38;3.80;89.00
7844;DHT22;3967;48.702;9.326;2022-12-08T18:24:06;3.80;88.50
7844;DHT22;3967;48.702;9.326;2022-12-08T18:26:33;3.70;89.30
7844;DHT22;3967;48.702;9.326;2022-12-08T18:29:00;3.60;89.00
7844;DHT22;3967;48.702;9.326;2022-12-08T18:31:27;3.60;89.10